sensor_id;sensor_type;location;lat;lon;timestamp;P1;durP1;ratioP1;P2;durP2;ratioP2
23868;SDS011;12115;47.128;15.422;2023-04-24T00:00:00;3.58;;;2.72;;
23868;SDS011;12115;47.128;15.422;2023-04-24T00:02:29;5.07;;;2.83;;
23868;SDS011;12115;47.128;15.422;2023-04-24T00:04:58;4.32;;;2.90;;
23868;SDS011;12115;47.128;15.422;2023-04-24T00:07:29;3.22;;;2.67;;
23868;SDS011;12115;47.128;15.422;2023-04-24T00:09:56;5.38;;;2.70;;
23868;SDS011;12115;47.128;15.422;2023-04-24T00:12:24;2.67;;;2.40;;
23868;SDS011;12115;47.128;15.422;2023-04-24T00:14:52;4.32;;;2.78;;
23868;SDS011;12115;47.128;15.422;2023-04-24T00:17:19;3.00;;;2.80;;
23868;SDS011;12115;47.128;15.422;2023-04-24T00:19:47;3.20;;;2.45;;
23868;SDS011;12115;47.128;15.422;2023-04-24T00:22:17;3.97;;;3.22;;
23868;SDS011;12115;47.128;15.422;2023-04-24T00:24:47;2.95;;;2.65;;
23868;SDS011;12115;47.128;15.422;2023-04-24T00:27:14;3.42;;;2.85;;
23868;SDS011;12115;47.128;15.422;2023-04-24T00:29:41;4.03;;;3.13;;
23868;SDS011;12115;47.128;15.422;2023-04-24T00:32:08;2.75;;;2.40;;
23868;SDS011;12115;47.128;15.422;2023-04-24T00:34:35;3.40;;;2.97;;
23868;SDS011;12115;47.128;15.422;2023-04-24T00:37:03;3.30;;;2.50;;
23868;SDS011;12115;47.128;15.422;2023-04-24T00:39:30;7.15;;;3.33;;
23868;SDS011;12115;47.128;15.422;2023-04-24T00:41:57;3.47;;;3.17;;
23868;SDS011;12115;47.128;15.422;2023-04-24T00:44:24;3.65;;;2.33;;
23868;SDS011;12115;47.128;15.422;2023-04-24T00:46:51;4.32;;;2.58;;
23868;SDS011;12115;47.128;15.422;2023-04-24T00:49:21;4.38;;;3.60;;
23868;SDS011;12115;47.128;15.422;2023-04-24T00:51:49;3.72;;;2.90;;
23868;SDS011;12115;47.128;15.422;2023-04-24T00:54:17;3.13;;;2.72;;
23868;SDS011;12115;47.128;15.422;2023-04-24T00:56:45;3.10;;;2.80;;
23868;SDS011;12115;47.128;15.422;2023-04-24T00:59:12;4.32;;;2.88;;
23868;SDS011;12115;47.128;15.422;2023-04-24T01:01:39;3.17;;;2.88;;
23868;SDS011;12115;47.128;15.422;2023-04-24T01:04:11;3.10;;;2.78;;
23868;SDS011;12115;47.128;15.422;2023-04-24T01:06:40;5.38;;;2.88;;
23868;SDS011;12115;47.128;15.422;2023-04-24T01:09:09;3.33;;;2.80;;
23868;SDS011;12115;47.128;15.422;2023-04-24T01:11:38;3.30;;;2.80;;
23868;SDS011;12115;47.128;15.422;2023-04-24T01:14:06;3.83;;;2.70;;
23868;SDS011;12115;47.128;15.422;2023-04-24T01:16:33;4.05;;;3.65;;
23868;SDS011;12115;47.128;15.422;2023-04-24T01:19:00;3.28;;;2.97;;
23868;SDS011;12115;47.128;15.422;2023-04-24T01:21:27;3.83;;;3.10;;
23868;SDS011;12115;47.128;15.422;2023-04-24T01:23:56;3.92;;;3.33;;
23868;SDS011;12115;47.128;15.422;2023-04-24T01:26:23;3.30;;;3.00;;
23868;SDS011;12115;47.128;15.422;2023-04-24T01:28:51;3.78;;;3.38;;
23868;SDS011;12115;47.128;15.422;2023-04-24T01:31:19;3.75;;;2.92;;
23868;SDS011;12115;47.128;15.422;2023-04-24T01:33:47;4.18;;;2.78;;
23868;SDS011;12115;47.128;15.422;2023-04-24T01:36:14;3.17;;;2.90;;
23868;SDS011;12115;47.128;15.422;2023-04-24T01:38:43;3.97;;;3.67;;
23868;SDS011;12115;47.128;15.422;2023-04-24T01:41:10;3.38;;;3.08;;
23868;SDS011;12115;47.128;15.422;2023-04-24T01:43:37;2.55;;;2.33;;
23868;SDS011;12115;47.128;15.422;2023-04-24T01:46:05;2.72;;;2.30;;
23868;SDS011;12115;47.128;15.422;2023-04-24T01:48:34;3.13;;;2.80;;
23868;SDS011;12115;47.128;15.422;2023-04-24T01:51:02;2.35;;;2.15;;
23868;SDS011;12115;47.128;15.422;2023-04-24T01:53:29;3.08;;;2.47;;
23868;SDS011;12115;47.128;15.422;2023-04-24T01:55:56;3.58;;;3.28;;
23868;SDS011;12115;47.128;15.422;2023-04-24T01:58:24;4.03;;;2.45;;
23868;SDS011;12115;47.128;15.422;2023-04-24T02:00:52;3.22;;;2.85;;
23868;SDS011;12115;47.128;15.422;2023-04-24T02:03:19;6.35;;;3.92;;
23868;SDS011;12115;47.128;15.422;2023-04-24T02:05:47;4.75;;;4.03;;
23868;SDS011;12115;47.128;15.422;2023-04-24T02:08:14;4.65;;;4.13;;
23868;SDS011;12115;47.128;15.422;2023-04-24T02:10:41;5.13;;;4.68;;
23868;SDS011;12115;47.128;15.422;2023-04-24T02:13:08;5.70;;;3.13;;
23868;SDS011;12115;47.128;15.422;2023-04-24T02:15:36;4.68;;;3.78;;
23868;SDS011;12115;47.128;15.422;2023-04-24T02:18:03;6.05;;;3.13;;
23868;SDS011;12115;47.128;15.422;2023-04-24T02:20:31;3.25;;;2.95;;
23868;SDS011;12115;47.128;15.422;2023-04-24T02:23:00;4.35;;;3.42;;
23868;SDS011;12115;47.128;15.422;2023-04-24T02:25:27;3.53;;;2.25;;
23868;SDS011;12115;47.128;15.422;2023-04-24T02:27:54;2.97;;;2.60;;
23868;SDS011;12115;47.128;15.422;2023-04-24T02:30:21;3.08;;;2.63;;
23868;SDS011;12115;47.128;15.422;2023-04-24T02:32:48;6.57;;;3.03;;
23868;SDS011;12115;47.128;15.422;2023-04-24T02:35:15;3.25;;;2.95;;
23868;SDS011;12115;47.128;15.422;2023-04-24T02:37:43;6.68;;;2.63;;
23868;SDS011;12115;47.128;15.422;2023-04-24T02:40:11;4.43;;;3.88;;
23868;SDS011;12115;47.128;15.422;2023-04-24T02:42:38;2.92;;;2.72;;
23868;SDS011;12115;47.128;15.422;2023-04-24T02:45:05;6.78;;;4.10;;
23868;SDS011;12115;47.128;15.422;2023-04-24T02:47:33;3.75;;;3.40;;
23868;SDS011;12115;47.128;15.422;2023-04-24T02:50:00;6.28;;;3.60;;
23868;SDS011;12115;47.128;15.422;2023-04-24T02:52:28;3.60;;;3.28;;
23868;SDS011;12115;47.128;15.422;2023-04-24T02:54:55;7.00;;;3.97;;
23868;SDS011;12115;47.128;15.422;2023-04-24T02:57:22;5.85;;;4.28;;
23868;SDS011;12115;47.128;15.422;2023-04-24T02:59:49;8.30;;;4.53;;
23868;SDS011;12115;47.128;15.422;2023-04-24T03:02:17;4.55;;;3.83;;
23868;SDS011;12115;47.128;15.422;2023-04-24T03:04:44;4.38;;;3.97;;
23868;SDS011;12115;47.128;15.422;2023-04-24T03:07:11;3.42;;;3.13;;
23868;SDS011;12115;47.128;15.422;2023-04-24T03:09:39;3.08;;;2.78;;
23868;SDS011;12115;47.128;15.422;2023-04-24T03:12:07;4.18;;;2.47;;
23868;SDS011;12115;47.128;15.422;2023-04-24T03:14:34;4.35;;;2.90;;
23868;SDS011;12115;47.128;15.422;2023-04-24T03:17:01;3.35;;;3.03;;
23868;SDS011;12115;47.128;15.422;2023-04-24T03:19:28;4.70;;;2.97;;
23868;SDS011;12115;47.128;15.422;2023-04-24T03:22:08;5.68;;;3.30;;
23868;SDS011;12115;47.128;15.422;2023-04-24T03:24:36;3.85;;;2.63;;
23868;SDS011;12115;47.128;15.422;2023-04-24T03:27:03;4.38;;;2.45;;
23868;SDS011;12115;47.128;15.422;2023-04-24T03:29:46;5.07;;;3.22;;
23868;SDS011;12115;47.128;15.422;2023-04-24T03:32:15;7.57;;;3.95;;
23868;SDS011;12115;47.128;15.422;2023-04-24T03:34:42;4.15;;;3.47;;
23868;SDS011;12115;47.128;15.422;2023-04-24T03:37:12;4.00;;;3.25;;
23868;SDS011;12115;47.128;15.422;2023-04-24T03:39:45;4.18;;;3.85;;
23868;SDS011;12115;47.128;15.422;2023-04-24T03:42:13;5.38;;;4.88;;
23868;SDS011;12115;47.128;15.422;2023-04-24T03:44:49;5.00;;;3.55;;
23868;SDS011;12115;47.128;15.422;2023-04-24T03:47:19;5.10;;;4.43;;
23868;SDS011;12115;47.128;15.422;2023-04-24T03:49:47;4.32;;;3.92;;
23868;SDS011;12115;47.128;15.422;2023-04-24T03:52:14;3.65;;;2.85;;
23868;SDS011;12115;47.128;15.422;2023-04-24T03:54:41;4.57;;;2.67;;
23868;SDS011;12115;47.128;15.422;2023-04-24T03:57:10;5.63;;;3.22;;
23868;SDS011;12115;47.128;15.422;2023-04-24T03:59:44;4.05;;;3.65;;
23868;SDS011;12115;47.128;15.422;2023-04-24T04:02:16;2.65;;;2.45;;
23868;SDS011;12115;47.128;15.422;2023-04-24T04:04:43;3.90;;;2.72;;
23868;SDS011;12115;47.128;15.422;2023-04-24T04:07:10;4.63;;;2.88;;
23868;SDS011;12115;47.128;15.422;2023-04-24T04:09:37;5.63;;;4.63;;
23868;SDS011;12115;47.128;15.422;2023-04-24T04:12:04;4.85;;;4.28;;
23868;SDS011;12115;47.128;15.422;2023-04-24T04:14:32;5.25;;;4.13;;
23868;SDS011;12115;47.128;15.422;2023-04-24T04:16:59;6.15;;;4.60;;
23868;SDS011;12115;47.128;15.422;2023-04-24T04:19:26;5.00;;;4.40;;
23868;SDS011;12115;47.128;15.422;2023-04-24T04:21:54;3.90;;;3.17;;
23868;SDS011;12115;47.128;15.422;2023-04-24T04:24:34;7.03;;;4.70;;
23868;SDS011;12115;47.128;15.422;2023-04-24T04:27:04;4.25;;;2.80;;
23868;SDS011;12115;47.128;15.422;2023-04-24T04:29:38;5.85;;;3.78;;
23868;SDS011;12115;47.128;15.422;2023-04-24T04:32:08;3.60;;;3.30;;
23868;SDS011;12115;47.128;15.422;2023-04-24T04:34:35;5.60;;;4.05;;
23868;SDS011;12115;47.128;15.422;2023-04-24T04:37:05;4.72;;;3.05;;
23868;SDS011;12115;47.128;15.422;2023-04-24T04:40:01;6.85;;;4.10;;
23868;SDS011;12115;47.128;15.422;2023-04-24T04:42:38;6.35;;;5.63;;
23868;SDS011;12115;47.128;15.422;2023-04-24T04:45:09;3.95;;;2.88;;
23868;SDS011;12115;47.128;15.422;2023-04-24T04:47:51;6.03;;;3.70;;
23868;SDS011;12115;47.128;15.422;2023-04-24T04:50:19;4.38;;;3.58;;
23868;SDS011;12115;47.128;15.422;2023-04-24T04:52:48;3.60;;;3.13;;
23868;SDS011;12115;47.128;15.422;2023-04-24T04:55:22;3.97;;;3.20;;
23868;SDS011;12115;47.128;15.422;2023-04-24T04:58:10;3.47;;;3.17;;
23868;SDS011;12115;47.128;15.422;2023-04-24T05:00:37;5.15;;;2.50;;
23868;SDS011;12115;47.128;15.422;2023-04-24T05:03:25;4.25;;;3.25;;
23868;SDS011;12115;47.128;15.422;2023-04-24T05:05:58;9.88;;;5.95;;
23868;SDS011;12115;47.128;15.422;2023-04-24T05:08:28;13.27;;;6.65;;
23868;SDS011;12115;47.128;15.422;2023-04-24T05:10:55;6.40;;;4.20;;
23868;SDS011;12115;47.128;15.422;2023-04-24T05:13:23;4.47;;;3.45;;
23868;SDS011;12115;47.128;15.422;2023-04-24T05:16:07;8.38;;;4.82;;
23868;SDS011;12115;47.128;15.422;2023-04-24T05:18:34;13.05;;;5.38;;
23868;SDS011;12115;47.128;15.422;2023-04-24T05:21:02;5.47;;;4.13;;
23868;SDS011;12115;47.128;15.422;2023-04-24T05:23:29;5.15;;;4.47;;
23868;SDS011;12115;47.128;15.422;2023-04-24T05:25:56;4.18;;;3.05;;
23868;SDS011;12115;47.128;15.422;2023-04-24T05:28:24;5.53;;;2.60;;
23868;SDS011;12115;47.128;15.422;2023-04-24T05:31:03;5.53;;;2.72;;
23868;SDS011;12115;47.128;15.422;2023-04-24T05:33:31;9.00;;;3.72;;
23868;SDS011;12115;47.128;15.422;2023-04-24T05:35:58;8.57;;;6.43;;
23868;SDS011;12115;47.128;15.422;2023-04-24T05:38:25;7.63;;;4.05;;
23868;SDS011;12115;47.128;15.422;2023-04-24T05:40:52;2.60;;;2.40;;
23868;SDS011;12115;47.128;15.422;2023-04-24T05:43:20;6.13;;;2.10;;
23868;SDS011;12115;47.128;15.422;2023-04-24T05:45:47;4.45;;;3.30;;
23868;SDS011;12115;47.128;15.422;2023-04-24T05:48:14;3.53;;;2.03;;
23868;SDS011;12115;47.128;15.422;2023-04-24T05:50:42;6.75;;;3.83;;
23868;SDS011;12115;47.128;15.422;2023-04-24T05:53:10;3.95;;;2.60;;
23868;SDS011;12115;47.128;15.422;2023-04-24T05:55:37;2.90;;;2.40;;
23868;SDS011;12115;47.128;15.422;2023-04-24T05:58:05;2.42;;;2.22;;
23868;SDS011;12115;47.128;15.422;2023-04-24T06:00:34;5.05;;;2.53;;
23868;SDS011;12115;47.128;15.422;2023-04-24T06:05:34;5.80;;;4.18;;
23868;SDS011;12115;47.128;15.422;2023-04-24T06:08:02;5.45;;;3.80;;
23868;SDS011;12115;47.128;15.422;2023-04-24T06:10:33;4.78;;;4.28;;
23868;SDS011;12115;47.128;15.422;2023-04-24T06:13:00;12.70;;;7.07;;
23868;SDS011;12115;47.128;15.422;2023-04-24T06:15:29;11.65;;;7.18;;
23868;SDS011;12115;47.128;15.422;2023-04-24T06:18:05;13.18;;;7.10;;
23868;SDS011;12115;47.128;15.422;2023-04-24T06:20:33;15.18;;;7.47;;
23868;SDS011;12115;47.128;15.422;2023-04-24T06:23:01;8.82;;;6.30;;
23868;SDS011;12115;47.128;15.422;2023-04-24T06:25:28;22.73;;;10.40;;
23868;SDS011;12115;47.128;15.422;2023-04-24T06:27:55;15.10;;;8.77;;
23868;SDS011;12115;47.128;15.422;2023-04-24T06:30:23;14.55;;;9.27;;
23868;SDS011;12115;47.128;15.422;2023-04-24T06:32:50;13.88;;;9.30;;
23868;SDS011;12115;47.128;15.422;2023-04-24T06:35:18;11.48;;;8.63;;
23868;SDS011;12115;47.128;15.422;2023-04-24T06:37:45;14.40;;;9.80;;
23868;SDS011;12115;47.128;15.422;2023-04-24T06:40:12;12.65;;;9.13;;
23868;SDS011;12115;47.128;15.422;2023-04-24T06:42:39;10.70;;;8.23;;
23868;SDS011;12115;47.128;15.422;2023-04-24T06:45:07;12.15;;;9.20;;
23868;SDS011;12115;47.128;15.422;2023-04-24T06:47:35;10.65;;;8.77;;
23868;SDS011;12115;47.128;15.422;2023-04-24T06:50:02;12.85;;;9.00;;
23868;SDS011;12115;47.128;15.422;2023-04-24T06:52:29;9.88;;;8.93;;
23868;SDS011;12115;47.128;15.422;2023-04-24T06:55:02;10.98;;;8.82;;
23868;SDS011;12115;47.128;15.422;2023-04-24T06:57:30;13.02;;;9.38;;
23868;SDS011;12115;47.128;15.422;2023-04-24T06:59:57;14.52;;;9.77;;
23868;SDS011;12115;47.128;15.422;2023-04-24T07:02:25;12.32;;;9.55;;
23868;SDS011;12115;47.128;15.422;2023-04-24T07:04:52;12.27;;;10.63;;
23868;SDS011;12115;47.128;15.422;2023-04-24T07:07:20;16.75;;;11.93;;
23868;SDS011;12115;47.128;15.422;2023-04-24T07:09:50;17.77;;;12.50;;
23868;SDS011;12115;47.128;15.422;2023-04-24T07:12:17;13.00;;;10.77;;
23868;SDS011;12115;47.128;15.422;2023-04-24T07:14:47;11.10;;;9.95;;
23868;SDS011;12115;47.128;15.422;2023-04-24T07:17:14;11.95;;;10.35;;
23868;SDS011;12115;47.128;15.422;2023-04-24T07:19:41;16.27;;;14.52;;
23868;SDS011;12115;47.128;15.422;2023-04-24T07:22:09;14.02;;;11.25;;
23868;SDS011;12115;47.128;15.422;2023-04-24T07:24:37;12.30;;;9.52;;
23868;SDS011;12115;47.128;15.422;2023-04-24T07:27:05;15.27;;;12.07;;
23868;SDS011;12115;47.128;15.422;2023-04-24T07:29:32;34.15;;;29.45;;
23868;SDS011;12115;47.128;15.422;2023-04-24T07:31:59;18.05;;;14.02;;
23868;SDS011;12115;47.128;15.422;2023-04-24T07:34:29;14.05;;;12.13;;
23868;SDS011;12115;47.128;15.422;2023-04-24T07:36:56;11.30;;;9.10;;
23868;SDS011;12115;47.128;15.422;2023-04-24T07:39:23;12.73;;;9.65;;
23868;SDS011;12115;47.128;15.422;2023-04-24T07:41:50;11.93;;;10.73;;
23868;SDS011;12115;47.128;15.422;2023-04-24T07:44:17;12.60;;;11.13;;
23868;SDS011;12115;47.128;15.422;2023-04-24T07:46:44;18.52;;;11.75;;
23868;SDS011;12115;47.128;15.422;2023-04-24T07:49:12;13.48;;;11.38;;
23868;SDS011;12115;47.128;15.422;2023-04-24T07:51:41;13.93;;;12.23;;
23868;SDS011;12115;47.128;15.422;2023-04-24T07:54:08;13.05;;;11.75;;
23868;SDS011;12115;47.128;15.422;2023-04-24T07:56:35;12.85;;;10.82;;
23868;SDS011;12115;47.128;15.422;2023-04-24T07:59:05;18.55;;;11.05;;
23868;SDS011;12115;47.128;15.422;2023-04-24T08:01:32;16.20;;;11.68;;
23868;SDS011;12115;47.128;15.422;2023-04-24T08:03:59;17.23;;;11.10;;
23868;SDS011;12115;47.128;15.422;2023-04-24T08:06:27;14.98;;;11.43;;
23868;SDS011;12115;47.128;15.422;2023-04-24T08:08:57;14.73;;;11.57;;
23868;SDS011;12115;47.128;15.422;2023-04-24T08:11:25;15.30;;;12.05;;
23868;SDS011;12115;47.128;15.422;2023-04-24T08:13:52;13.90;;;9.98;;
23868;SDS011;12115;47.128;15.422;2023-04-24T08:16:21;14.65;;;11.35;;
23868;SDS011;12115;47.128;15.422;2023-04-24T08:18:50;19.23;;;14.63;;
23868;SDS011;12115;47.128;15.422;2023-04-24T08:21:18;14.45;;;12.90;;
23868;SDS011;12115;47.128;15.422;2023-04-24T08:23:46;18.40;;;12.90;;
23868;SDS011;12115;47.128;15.422;2023-04-24T08:26:13;19.85;;;14.93;;
23868;SDS011;12115;47.128;15.422;2023-04-24T08:28:40;16.63;;;9.80;;
23868;SDS011;12115;47.128;15.422;2023-04-24T08:31:07;12.35;;;10.23;;
23868;SDS011;12115;47.128;15.422;2023-04-24T08:33:34;13.52;;;10.45;;
23868;SDS011;12115;47.128;15.422;2023-04-24T08:36:05;13.77;;;10.38;;
23868;SDS011;12115;47.128;15.422;2023-04-24T08:38:32;14.10;;;12.07;;
23868;SDS011;12115;47.128;15.422;2023-04-24T08:41:00;12.45;;;11.05;;
23868;SDS011;12115;47.128;15.422;2023-04-24T08:43:28;12.68;;;9.15;;
23868;SDS011;12115;47.128;15.422;2023-04-24T08:45:55;11.93;;;9.00;;
23868;SDS011;12115;47.128;15.422;2023-04-24T08:48:23;13.60;;;9.73;;
23868;SDS011;12115;47.128;15.422;2023-04-24T08:50:57;14.95;;;11.13;;
23868;SDS011;12115;47.128;15.422;2023-04-24T08:53:26;17.10;;;11.48;;
23868;SDS011;12115;47.128;15.422;2023-04-24T08:55:53;17.05;;;11.18;;
23868;SDS011;12115;47.128;15.422;2023-04-24T08:58:26;15.65;;;10.25;;
23868;SDS011;12115;47.128;15.422;2023-04-24T09:00:55;17.67;;;12.00;;
23868;SDS011;12115;47.128;15.422;2023-04-24T09:03:22;14.65;;;10.20;;
23868;SDS011;12115;47.128;15.422;2023-04-24T09:05:50;13.38;;;8.75;;
23868;SDS011;12115;47.128;15.422;2023-04-24T09:08:19;14.75;;;8.63;;
23868;SDS011;12115;47.128;15.422;2023-04-24T09:10:47;18.60;;;10.43;;
23868;SDS011;12115;47.128;15.422;2023-04-24T09:13:17;13.45;;;6.88;;
23868;SDS011;12115;47.128;15.422;2023-04-24T09:15:48;11.65;;;4.30;;
23868;SDS011;12115;47.128;15.422;2023-04-24T09:18:15;5.97;;;3.38;;
23868;SDS011;12115;47.128;15.422;2023-04-24T09:23:25;3.63;;;1.92;;
23868;SDS011;12115;47.128;15.422;2023-04-24T09:25:55;4.18;;;1.17;;
23868;SDS011;12115;47.128;15.422;2023-04-24T09:28:39;1.20;;;1.02;;
23868;SDS011;12115;47.128;15.422;2023-04-24T09:33:36;1.17;;;1.00;;
23868;SDS011;12115;47.128;15.422;2023-04-24T09:36:04;1.67;;;1.30;;
23868;SDS011;12115;47.128;15.422;2023-04-24T09:41:01;1.55;;;1.20;;
23868;SDS011;12115;47.128;15.422;2023-04-24T09:43:31;1.42;;;1.30;;
23868;SDS011;12115;47.128;15.422;2023-04-24T09:45:58;2.60;;;0.90;;
23868;SDS011;12115;47.128;15.422;2023-04-24T09:48:33;2.30;;;1.00;;
23868;SDS011;12115;47.128;15.422;2023-04-24T09:51:02;1.27;;;1.13;;
23868;SDS011;12115;47.128;15.422;2023-04-24T09:53:30;2.33;;;0.98;;
23868;SDS011;12115;47.128;15.422;2023-04-24T09:56:06;1.50;;;1.08;;
23868;SDS011;12115;47.128;15.422;2023-04-24T09:58:35;2.88;;;1.65;;
23868;SDS011;12115;47.128;15.422;2023-04-24T10:01:03;2.20;;;1.65;;
23868;SDS011;12115;47.128;15.422;2023-04-24T10:03:31;3.10;;;1.83;;
23868;SDS011;12115;47.128;15.422;2023-04-24T10:06:01;2.40;;;1.53;;
23868;SDS011;12115;47.128;15.422;2023-04-24T10:08:35;3.00;;;2.10;;
23868;SDS011;12115;47.128;15.422;2023-04-24T10:11:04;2.70;;;2.17;;
23868;SDS011;12115;47.128;15.422;2023-04-24T10:13:31;3.80;;;2.10;;
23868;SDS011;12115;47.128;15.422;2023-04-24T10:16:00;2.67;;;1.80;;
23868;SDS011;12115;47.128;15.422;2023-04-24T10:18:28;2.10;;;1.40;;
23868;SDS011;12115;47.128;15.422;2023-04-24T10:20:56;3.30;;;1.40;;
23868;SDS011;12115;47.128;15.422;2023-04-24T10:23:26;1.90;;;1.50;;
23868;SDS011;12115;47.128;15.422;2023-04-24T10:25:54;5.93;;;2.30;;
23868;SDS011;12115;47.128;15.422;2023-04-24T10:28:22;3.28;;;2.25;;
23868;SDS011;12115;47.128;15.422;2023-04-24T10:30:50;3.15;;;2.20;;
23868;SDS011;12115;47.128;15.422;2023-04-24T10:33:21;2.97;;;1.58;;
23868;SDS011;12115;47.128;15.422;2023-04-24T10:35:50;2.50;;;1.83;;
23868;SDS011;12115;47.128;15.422;2023-04-24T10:38:24;2.15;;;1.90;;
23868;SDS011;12115;47.128;15.422;2023-04-24T10:41:06;1.48;;;1.38;;
23868;SDS011;12115;47.128;15.422;2023-04-24T10:43:40;1.30;;;1.00;;
23868;SDS011;12115;47.128;15.422;2023-04-24T10:46:08;4.00;;;1.02;;
23868;SDS011;12115;47.128;15.422;2023-04-24T10:48:41;2.45;;;1.55;;
23868;SDS011;12115;47.128;15.422;2023-04-24T10:51:11;3.47;;;1.42;;
23868;SDS011;12115;47.128;15.422;2023-04-24T10:53:40;3.55;;;1.30;;
23868;SDS011;12115;47.128;15.422;2023-04-24T10:56:08;2.08;;;0.70;;
23868;SDS011;12115;47.128;15.422;2023-04-24T11:01:47;1.20;;;0.35;;
23868;SDS011;12115;47.128;15.422;2023-04-24T11:04:26;0.20;;;0.20;;
23868;SDS011;12115;47.128;15.422;2023-04-24T11:06:57;0.30;;;0.20;;
23868;SDS011;12115;47.128;15.422;2023-04-24T11:09:28;2.20;;;0.40;;
23868;SDS011;12115;47.128;15.422;2023-04-24T11:12:08;0.30;;;0.30;;
23868;SDS011;12115;47.128;15.422;2023-04-24T11:17:28;0.28;;;0.28;;
23868;SDS011;12115;47.128;15.422;2023-04-24T11:20:05;0.52;;;0.30;;
23868;SDS011;12115;47.128;15.422;2023-04-24T11:22:54;0.30;;;0.28;;
23868;SDS011;12115;47.128;15.422;2023-04-24T11:25:22;0.45;;;0.20;;
23868;SDS011;12115;47.128;15.422;2023-04-24T11:27:49;0.40;;;0.30;;
23868;SDS011;12115;47.128;15.422;2023-04-24T11:30:17;0.40;;;0.30;;
23868;SDS011;12115;47.128;15.422;2023-04-24T11:32:50;0.30;;;0.28;;
23868;SDS011;12115;47.128;15.422;2023-04-24T11:35:21;0.75;;;0.40;;
23868;SDS011;12115;47.128;15.422;2023-04-24T11:37:54;0.50;;;0.40;;
23868;SDS011;12115;47.128;15.422;2023-04-24T11:40:24;1.55;;;0.30;;
23868;SDS011;12115;47.128;15.422;2023-04-24T11:42:53;0.55;;;0.20;;
23868;SDS011;12115;47.128;15.422;2023-04-24T11:45:25;0.30;;;0.28;;
23868;SDS011;12115;47.128;15.422;2023-04-24T11:47:53;0.10;;;0.10;;
23868;SDS011;12115;47.128;15.422;2023-04-24T11:50:24;2.05;;;0.20;;
23868;SDS011;12115;47.128;15.422;2023-04-24T11:52:53;0.43;;;0.30;;
23868;SDS011;12115;47.128;15.422;2023-04-24T11:57:51;0.40;;;0.30;;
23868;SDS011;12115;47.128;15.422;2023-04-24T12:03:06;0.30;;;0.30;;
23868;SDS011;12115;47.128;15.422;2023-04-24T12:05:35;0.55;;;0.30;;
23868;SDS011;12115;47.128;15.422;2023-04-24T12:08:03;0.77;;;0.45;;
23868;SDS011;12115;47.128;15.422;2023-04-24T12:10:31;0.43;;;0.40;;
23868;SDS011;12115;47.128;15.422;2023-04-24T12:12:59;0.98;;;0.22;;
23868;SDS011;12115;47.128;15.422;2023-04-24T12:15:27;0.95;;;0.20;;
23868;SDS011;12115;47.128;15.422;2023-04-24T12:17:55;1.55;;;0.25;;
23868;SDS011;12115;47.128;15.422;2023-04-24T12:20:25;0.35;;;0.35;;
23868;SDS011;12115;47.128;15.422;2023-04-24T12:22:58;1.55;;;0.30;;
23868;SDS011;12115;47.128;15.422;2023-04-24T12:25:31;2.22;;;0.40;;
23868;SDS011;12115;47.128;15.422;2023-04-24T12:30:33;0.28;;;0.28;;
23868;SDS011;12115;47.128;15.422;2023-04-24T12:33:05;1.17;;;0.15;;
23868;SDS011;12115;47.128;15.422;2023-04-24T12:35:33;0.85;;;0.30;;
23868;SDS011;12115;47.128;15.422;2023-04-24T12:38:09;0.20;;;0.20;;
23868;SDS011;12115;47.128;15.422;2023-04-24T12:40:39;0.30;;;0.30;;
23868;SDS011;12115;47.128;15.422;2023-04-24T12:43:14;0.55;;;0.17;;
23868;SDS011;12115;47.128;15.422;2023-04-24T12:45:42;0.17;;;0.13;;
23868;SDS011;12115;47.128;15.422;2023-04-24T12:48:11;2.00;;;0.20;;
23868;SDS011;12115;47.128;15.422;2023-04-24T12:50:40;2.60;;;0.35;;
23868;SDS011;12115;47.128;15.422;2023-04-24T12:53:11;2.35;;;0.38;;
23868;SDS011;12115;47.128;15.422;2023-04-24T12:55:39;0.35;;;0.20;;
23868;SDS011;12115;47.128;15.422;2023-04-24T12:58:06;0.35;;;0.17;;
23868;SDS011;12115;47.128;15.422;2023-04-24T13:00:33;0.73;;;0.20;;
23868;SDS011;12115;47.128;15.422;2023-04-24T13:03:01;0.30;;;0.22;;
23868;SDS011;12115;47.128;15.422;2023-04-24T13:05:29;0.30;;;0.20;;
23868;SDS011;12115;47.128;15.422;2023-04-24T13:07:57;1.75;;;0.30;;
23868;SDS011;12115;47.128;15.422;2023-04-24T13:10:24;0.85;;;0.30;;
23868;SDS011;12115;47.128;15.422;2023-04-24T13:12:51;1.05;;;0.32;;
23868;SDS011;12115;47.128;15.422;2023-04-24T13:15:19;0.70;;;0.30;;
23868;SDS011;12115;47.128;15.422;2023-04-24T13:17:46;2.38;;;0.50;;
23868;SDS011;12115;47.128;15.422;2023-04-24T13:20:13;0.85;;;0.38;;
23868;SDS011;12115;47.128;15.422;2023-04-24T13:22:40;1.70;;;0.20;;
23868;SDS011;12115;47.128;15.422;2023-04-24T13:25:07;1.38;;;0.40;;
23868;SDS011;12115;47.128;15.422;2023-04-24T13:27:35;1.05;;;0.30;;
23868;SDS011;12115;47.128;15.422;2023-04-24T13:30:05;0.63;;;0.30;;
23868;SDS011;12115;47.128;15.422;2023-04-24T13:32:33;0.40;;;0.30;;
23868;SDS011;12115;47.128;15.422;2023-04-24T13:35:01;0.57;;;0.35;;
23868;SDS011;12115;47.128;15.422;2023-04-24T13:37:29;0.57;;;0.25;;
23868;SDS011;12115;47.128;15.422;2023-04-24T13:39:56;0.70;;;0.30;;
23868;SDS011;12115;47.128;15.422;2023-04-24T13:42:23;0.82;;;0.40;;
23868;SDS011;12115;47.128;15.422;2023-04-24T13:44:50;0.90;;;0.13;;
23868;SDS011;12115;47.128;15.422;2023-04-24T13:47:18;0.43;;;0.28;;
23868;SDS011;12115;47.128;15.422;2023-04-24T13:49:45;0.77;;;0.30;;
23868;SDS011;12115;47.128;15.422;2023-04-24T13:52:12;0.50;;;0.22;;
23868;SDS011;12115;47.128;15.422;2023-04-24T13:54:40;0.63;;;0.45;;
23868;SDS011;12115;47.128;15.422;2023-04-24T13:57:07;0.90;;;0.47;;
23868;SDS011;12115;47.128;15.422;2023-04-24T13:59:34;0.47;;;0.30;;
23868;SDS011;12115;47.128;15.422;2023-04-24T14:02:01;0.57;;;0.30;;
23868;SDS011;12115;47.128;15.422;2023-04-24T14:04:28;5.60;;;0.40;;
23868;SDS011;12115;47.128;15.422;2023-04-24T14:06:56;0.25;;;0.25;;
23868;SDS011;12115;47.128;15.422;2023-04-24T14:09:23;0.28;;;0.20;;
23868;SDS011;12115;47.128;15.422;2023-04-24T14:11:51;0.82;;;0.30;;
23868;SDS011;12115;47.128;15.422;2023-04-24T14:14:18;1.92;;;0.30;;
23868;SDS011;12115;47.128;15.422;2023-04-24T14:16:45;0.65;;;0.43;;
23868;SDS011;12115;47.128;15.422;2023-04-24T14:19:12;1.25;;;0.30;;
23868;SDS011;12115;47.128;15.422;2023-04-24T14:21:39;0.82;;;0.40;;
23868;SDS011;12115;47.128;15.422;2023-04-24T14:24:06;0.75;;;0.45;;
23868;SDS011;12115;47.128;15.422;2023-04-24T14:26:34;1.20;;;0.40;;
23868;SDS011;12115;47.128;15.422;2023-04-24T14:29:01;0.60;;;0.40;;
23868;SDS011;12115;47.128;15.422;2023-04-24T14:31:39;0.60;;;0.40;;
23868;SDS011;12115;47.128;15.422;2023-04-24T14:34:07;0.63;;;0.40;;
23868;SDS011;12115;47.128;15.422;2023-04-24T14:36:34;4.53;;;0.50;;
23868;SDS011;12115;47.128;15.422;2023-04-24T14:39:01;4.50;;;1.13;;
23868;SDS011;12115;47.128;15.422;2023-04-24T14:44:03;1.42;;;0.55;;
23868;SDS011;12115;47.128;15.422;2023-04-24T14:46:30;0.85;;;0.60;;
23868;SDS011;12115;47.128;15.422;2023-04-24T14:48:57;0.68;;;0.45;;
23868;SDS011;12115;47.128;15.422;2023-04-24T14:51:25;0.90;;;0.40;;
23868;SDS011;12115;47.128;15.422;2023-04-24T14:53:52;2.25;;;0.50;;
23868;SDS011;12115;47.128;15.422;2023-04-24T14:56:19;0.70;;;0.50;;
23868;SDS011;12115;47.128;15.422;2023-04-24T14:58:46;0.80;;;0.60;;
23868;SDS011;12115;47.128;15.422;2023-04-24T15:01:14;0.43;;;0.43;;
23868;SDS011;12115;47.128;15.422;2023-04-24T15:03:43;3.58;;;1.10;;
23868;SDS011;12115;47.128;15.422;2023-04-24T15:06:11;2.35;;;1.60;;